Time;durP1;ratioP1;P1;durP2;ratioP2;P2;SDS_P1;SDS_P2;PMS_P1;PMS_P2;Temp;Humidity;BMP_temperature;BMP_pressure;BME280_temperature;BME280_humidity;BME280_pressure;Samples;Min_cycle;Max_cycle;Signal;HPM_P1;HPM_P2
2022/09/28 00:00:58;;;;;;;10.38;5.00;;;;;;;7.41;100.00;99506.75;4954829;29;20491;-65
2022/09/28 00:03:24;;;;;;;10.10;6.13;;;;;;;7.43;100.00;99510.81;4954539;29;20033;-65
2022/09/28 00:05:49;;;;;;;9.88;5.22;;;;;;;7.42;100.00;99511.06;4954503;29;20073;-67
2022/09/28 00:08:15;;;;;;;13.23;5.63;;;;;;;7.40;100.00;99513.91;4954276;29;20550;-67
2022/09/28 00:10:42;;;;;;;13.32;6.13;;;;;;;7.39;100.00;99506.16;4954392;29;20119;-68
2022/09/28 00:13:08;;;;;;;11.30;6.70;;;;;;;7.40;100.00;99505.94;4954485;29;20039;-68
2022/09/28 00:15:33;;;;;;;13.70;6.50;;;;;;;7.42;100.00;99501.25;4954381;29;20078;-68
2022/09/28 00:17:58;;;;;;;11.50;6.13;;;;;;;7.43;100.00;99500.22;4954399;29;20038;-68
2022/09/28 00:20:24;;;;;;;13.93;6.53;;;;;;;7.43;100.00;99505.53;4954266;29;20035;-68
2022/09/28 00:22:49;;;;;;;15.25;8.10;;;;;;;7.44;100.00;99501.88;4936681;29;20519;-68
2022/09/28 00:25:15;;;;;;;13.68;8.15;;;;;;;7.44;100.00;99501.88;4954183;29;20071;-68
2022/09/28 00:27:41;;;;;;;15.68;8.65;;;;;;;7.43;100.00;99500.22;4954147;28;20031;-68
2022/09/28 00:30:08;;;;;;;14.77;8.15;;;;;;;7.43;100.00;99489.59;4954025;29;20122;-68
2022/09/28 00:32:33;;;;;;;18.30;8.07;;;;;;;7.42;100.00;99488.00;4954211;29;20019;-68
2022/09/28 00:34:59;;;;;;;16.45;9.55;;;;;;;7.43;100.00;99488.78;4954122;29;20531;-68
2022/09/28 00:37:24;;;;;;;19.45;9.75;;;;;;;7.43;100.00;99486.97;4953938;29;20031;-68
2022/09/28 00:39:49;;;;;;;20.33;9.45;;;;;;;7.40;100.00;99483.91;4936666;29;20059;-68
2022/09/28 00:42:22;;;;;;;17.13;8.80;;;;;;;7.40;100.00;99484.72;4936716;29;20130;-68
2022/09/28 00:44:58;;;;;;;20.98;9.80;;;;;;;7.42;100.00;99485.34;4953993;29;20031;-68
2022/09/28 00:47:45;;;;;;;18.63;9.13;;;;;;;7.43;100.00;99479.00;4953869;28;20505;-68
2022/09/28 00:50:25;;;;;;;19.65;9.10;;;;;;;7.44;100.00;99483.28;4953809;29;20039;-68
2022/09/28 00:52:59;;;;;;;15.23;8.90;;;;;;;7.39;100.00;99472.50;4953790;29;20042;-68
2022/09/28 00:55:32;;;;;;;14.57;7.80;;;;;;;7.43;100.00;99472.88;4953750;28;20039;-65
2022/09/28 00:58:00;;;;;;;15.32;8.32;;;;;;;7.44;100.00;99475.34;4953722;29;20391;-66
2022/09/28 01:00:26;;;;;;;16.23;9.25;;;;;;;7.45;100.00;99463.69;4953630;29;20027;-65
2022/09/28 01:02:51;;;;;;;16.75;8.98;;;;;;;7.46;100.00;99467.97;4953453;28;20066;-65
2022/09/28 01:05:17;;;;;;;27.13;10.65;;;;;;;7.48;100.00;99475.72;4953657;29;20086;-65
2022/09/28 01:07:45;;;;;;;15.45;8.13;;;;;;;7.49;100.00;99471.22;4953452;29;20122;-66
2022/09/28 01:10:10;;;;;;;16.95;9.05;;;;;;;7.49;100.00;99464.06;4953236;29;20134;-63
2022/09/28 01:12:35;;;;;;;13.55;7.22;;;;;;;7.40;100.00;99450.25;4953244;29;20110;-63
2022/09/28 01:15:02;;;;;;;14.85;8.13;;;;;;;7.50;100.00;99464.91;4953253;29;20471;-63
2022/09/28 01:17:30;;;;;;;13.52;6.95;;;;;;;7.52;100.00;99468.97;4953236;29;20479;-63
2022/09/28 01:20:17;;;;;;;15.70;8.73;;;;;;;7.55;100.00;99467.75;4953181;29;20098;-63
2022/09/28 01:23:01;;;;;;;13.13;7.07;;;;;;;7.56;100.00;99466.72;4953029;28;20063;-63
2022/09/28 01:25:33;;;;;;;15.45;8.23;;;;;;;7.55;100.00;99463.25;4953077;29;20074;-63
2022/09/28 01:28:11;;;;;;;14.02;7.88;;;;;;;7.50;100.00;99456.97;4953087;28;20031;-65
2022/09/28 01:31:02;;;;;;;12.82;7.93;;;;;;;7.54;100.00;99468.75;4953010;29;20027;-65
2022/09/28 01:33:34;;;;;;;16.92;7.28;;;;;;;7.49;100.00;99463.25;4952784;28;20062;-65
2022/09/28 01:36:08;;;;;;;15.00;8.55;;;;;;;7.47;100.00;99469.59;4952985;29;20029;-65
2022/09/28 01:38:42;;;;;;;13.50;7.03;;;;;;;7.44;100.00;99470.03;4936441;29;20071;-65
2022/09/28 01:41:09;;;;;;;14.02;7.18;;;;;;;7.40;100.00;99473.31;4952932;29;20031;-65
2022/09/28 01:43:39;;;;;;;14.50;7.82;;;;;;;7.37;100.00;99471.88;4952819;29;20976;-65
2022/09/28 01:46:15;;;;;;;14.10;9.43;;;;;;;7.35;100.00;99475.78;4952747;29;20063;-65
2022/09/28 01:48:53;;;;;;;13.00;6.57;;;;;;;7.34;100.00;99482.13;4952734;28;20024;-65
2022/09/28 01:51:33;;;;;;;11.98;6.70;;;;;;;7.33;100.00;99485.78;4952684;29;20035;-65
2022/09/28 01:54:12;;;;;;;15.63;7.20;;;;;;;7.33;100.00;99477.81;4952588;29;20594;-65
2022/09/28 01:56:43;;;;;;;12.73;6.28;;;;;;;7.23;100.00;99459.69;4952605;29;20541;-65
2022/09/28 01:59:12;;;;;;;14.75;7.05;;;;;;;7.30;100.00;99473.75;4952640;29;20027;-65
2022/09/28 02:01:46;;;;;;;12.55;7.88;;;;;;;7.30;100.00;99475.59;4952416;29;20031;-65
2022/09/28 02:04:19;;;;;;;16.98;7.82;;;;;;;7.28;100.00;99469.66;4952494;29;20090;-65
2022/09/28 02:06:52;;;;;;;15.50;8.25;;;;;;;7.28;100.00;99475.78;4952285;29;20058;-67
2022/09/28 02:09:26;;;;;;;16.15;8.23;;;;;;;7.28;100.00;99473.13;4952273;29;20039;-67
2022/09/28 02:12:01;;;;;;;13.68;7.60;;;;;;;7.30;100.00;99473.75;4952280;29;20027;-67
2022/09/28 02:14:29;;;;;;;15.32;7.82;;;;;;;7.31;100.00;99472.72;4952007;28;20038;-67
2022/09/28 02:16:56;;;;;;;13.77;8.18;;;;;;;7.34;100.00;99471.50;4951739;29;20117;-67
2022/09/28 02:19:24;;;;;;;16.88;8.90;;;;;;;7.35;100.00;99471.28;4952113;29;20042;-67
2022/09/28 02:22:14;;;;;;;15.98;8.45;;;;;;;7.38;100.00;99470.03;4951931;29;20118;-67
2022/09/28 02:24:51;;;;;;;16.80;8.60;;;;;;;7.39;100.00;99466.38;4951979;28;20034;-67
2022/09/28 02:27:32;;;;;;;19.15;10.18;;;;;;;7.40;100.00;99463.50;4952095;29;20031;-67
2022/09/28 02:29:58;;;;;;;16.45;10.20;;;;;;;7.44;100.00;99474.50;4951851;29;20058;-67
2022/09/28 02:32:26;;;;;;;17.58;9.70;;;;;;;7.44;100.00;99474.50;4951838;29;20035;-68
2022/09/28 02:34:52;;;;;;;18.35;10.05;;;;;;;7.43;100.00;99468.38;4951854;29;20038;-68
2022/09/28 02:37:17;;;;;;;16.02;9.43;;;;;;;7.47;100.00;99469.59;4951910;29;20038;-68
2022/09/28 02:39:42;;;;;;;18.67;12.00;;;;;;;7.47;100.00;99485.53;4951656;29;20027;-68
2022/09/28 02:42:17;;;;;;;16.52;10.52;;;;;;;7.46;100.00;99481.22;4951626;28;20039;-68
2022/09/28 02:44:58;;;;;;;18.08;10.60;;;;;;;7.47;100.00;99474.09;4951666;29;20027;-68
2022/09/28 02:48:02;;;;;;;16.05;9.50;;;;;;;7.49;100.00;99481.84;4951723;28;20035;-68
2022/09/28 02:50:48;;;;;;;19.83;9.55;;;;;;;7.48;100.00;99470.41;4951509;29;20025;-68
2022/09/28 02:53:37;;;;;;;16.88;9.43;;;;;;;7.49;100.00;99471.22;4951602;28;20046;-68
2022/09/28 02:56:09;;;;;;;18.05;9.50;;;;;;;7.48;100.00;99470.41;4950945;29;20043;-68
2022/09/28 02:58:46;;;;;;;18.17;9.68;;;;;;;7.45;100.00;99466.34;4934213;29;20499;-68
2022/09/28 03:01:22;;;;;;;16.80;9.68;;;;;;;7.44;100.00;99475.34;4951653;29;20034;-68
2022/09/28 03:03:49;;;;;;;17.33;9.88;;;;;;;7.36;100.00;99461.47;4951407;29;20074;-68
2022/09/28 03:06:24;;;;;;;18.13;9.30;;;;;;;7.37;100.00;99468.44;4951471;29;20423;-68
2022/09/28 03:08:56;;;;;;;17.40;9.75;;;;;;;7.39;100.00;99469.84;4951011;29;20439;-68
2022/09/28 03:11:29;;;;;;;14.50;8.52;;;;;;;7.42;100.00;99473.91;4951117;29;20135;-68
2022/09/28 03:13:55;;;;;;;21.70;9.93;;;;;;;7.43;100.00;99472.88;4936624;29;20404;-68
2022/09/28 03:16:21;;;;;;;15.75;8.18;;;;;;;7.40;100.00;99468.81;4951224;29;20046;-68
2022/09/28 03:18:46;;;;;;;13.65;7.10;;;;;;;7.36;100.00;99464.13;4951328;28;20031;-68
2022/09/28 03:21:13;;;;;;;16.48;8.30;;;;;;;7.37;100.00;99471.88;4951100;29;20034;-68
2022/09/28 03:23:39;;;;;;;16.63;7.40;;;;;;;7.36;100.00;99472.94;4950905;29;20122;-68
2022/09/28 03:26:07;;;;;;;12.95;7.25;;;;;;;7.33;100.00;99467.19;4950922;28;20490;-68
2022/09/28 03:28:33;;;;;;;14.45;6.72;;;;;;;7.38;100.00;99475.34;4950494;29;20039;-65
2022/09/28 03:30:58;;;;;;;14.27;6.78;;;;;;;7.39;100.00;99472.50;4951020;29;20038;-65
2022/09/28 03:33:24;;;;;;;14.50;6.88;;;;;;;7.40;100.00;99478.63;4950965;29;20035;-65
2022/09/28 03:35:50;;;;;;;17.38;7.43;;;;;;;7.38;100.00;99470.03;4950977;29;20031;-65
2022/09/28 03:38:17;;;;;;;13.85;7.43;;;;;;;7.40;100.00;99475.97;4951308;29;20079;-65
2022/09/28 03:40:43;;;;;;;14.88;7.47;;;;;;;7.39;100.00;99472.50;4950829;29;20038;-65
2022/09/28 03:43:08;;;;;;;16.38;7.43;;;;;;;7.37;100.00;99476.38;4950904;29;20031;-65
2022/09/28 03:45:33;;;;;;;13.65;7.10;;;;;;;7.36;100.00;99472.94;4933478;29;20063;-65
2022/09/28 03:47:59;;;;;;;12.20;6.10;;;;;;;7.34;100.00;99472.31;4950934;29;20376;-63
2022/09/28 03:50:24;;;;;;;11.80;5.78;;;;;;;7.32;100.00;99471.69;4950734;29;20039;-63
2022/09/28 03:52:50;;;;;;;12.77;6.13;;;;;;;7.28;100.00;99469.66;4950892;29;20035;-63
2022/09/28 03:55:15;;;;;;;13.55;6.13;;;;;;;7.31;100.00;99485.16;4933682;29;20050;-63
2022/09/28 03:57:40;;;;;;;11.77;5.95;;;;;;;7.30;100.00;99484.34;4950775;29;20035;-63
2022/09/28 04:00:07;;;;;;;12.55;4.97;;;;;;;7.29;100.00;99481.91;4950744;28;20031;-63
2022/09/28 04:02:33;;;;;;;9.85;6.00;;;;;;;7.29;100.00;99482.72;4950764;28;20043;-63
2022/09/28 04:04:58;;;;;;;13.98;5.63;;;;;;;7.28;100.00;99481.09;4950723;29;20042;-63
2022/09/28 04:07:24;;;;;;;8.80;4.35;;;;;;;7.27;100.00;99482.13;4950627;29;20031;-63
2022/09/28 04:09:49;;;;;;;10.25;4.38;;;;;;;7.26;100.00;99491.13;4950795;29;20126;-63
2022/09/28 04:12:14;;;;;;;9.52;5.20;;;;;;;7.25;100.00;99486.81;4950592;29;20122;-63
2022/09/28 04:14:40;;;;;;;8.57;4.40;;;;;;;7.24;100.00;99482.53;4950563;29;20069;-63
2022/09/28 04:17:06;;;;;;;10.18;4.35;;;;;;;7.21;100.00;99483.78;4950476;29;20054;-65
2022/09/28 04:19:31;;;;;;;9.63;5.05;;;;;;;7.15;100.00;99467.88;4950526;29;20106;-65
2022/09/28 04:21:57;;;;;;;11.40;5.00;;;;;;;7.19;100.00;99475.22;4950432;29;20030;-65
2022/09/28 04:24:22;;;;;;;6.07;3.78;;;;;;;7.18;100.00;99478.09;4933530;28;20039;-65
2022/09/28 04:26:48;;;;;;;8.25;4.25;;;;;;;7.18;100.00;99476.25;4950511;28;20039;-65
2022/09/28 04:29:16;;;;;;;7.78;4.13;;;;;;;7.19;100.00;99479.69;4938859;29;20031;-65
2022/09/28 04:31:50;;;;;;;11.48;4.40;;;;;;;7.18;100.00;99475.44;4932151;29;20059;-65
2022/09/28 04:34:18;;;;;;;6.07;3.60;;;;;;;7.16;100.00;99478.28;4932197;29;20091;-65
2022/09/28 04:36:45;;;;;;;6.22;3.40;;;;;;;7.15;100.00;99473.16;4932066;29;20035;-65
2022/09/28 04:39:11;;;;;;;9.15;3.22;;;;;;;7.14;100.00;99474.22;4934192;29;20027;-65
2022/09/28 04:41:37;;;;;;;8.45;3.00;;;;;;;7.14;100.00;99472.38;4935686;29;20036;-67
2022/09/28 04:44:02;;;;;;;11.38;3.53;;;;;;;7.15;100.00;99475.81;4935631;29;20040;-67
2022/09/28 04:46:28;;;;;;;10.23;3.80;;;;;;;7.13;100.00;99469.94;4935634;29;20078;-65
2022/09/28 04:48:53;;;;;;;4.57;2.83;;;;;;;7.12;100.00;99479.69;4935514;29;20399;-65
2022/09/28 04:51:18;;;;;;;5.90;2.63;;;;;;;7.09;100.00;99471.34;4918270;29;20495;-65
2022/09/28 04:53:44;;;;;;;5.40;2.90;;;;;;;7.08;100.00;99475.03;4953536;29;20032;-65
2022/09/28 04:56:15;;;;;;;5.35;2.78;;;;;;;7.08;100.00;99475.03;4953720;29;20149;-65
2022/09/28 04:58:41;;;;;;;5.40;2.47;;;;;;;7.06;100.00;99483.19;4953500;29;20039;-65
2022/09/28 05:01:10;;;;;;;7.63;2.63;;;;;;;7.05;100.00;99481.56;4953553;28;20387;-65
2022/09/28 05:03:36;;;;;;;7.75;3.17;;;;;;;7.02;100.00;99490.75;4953565;29;20037;-65
2022/09/28 05:06:01;;;;;;;3.20;2.33;;;;;;;7.01;100.00;99491.75;4953485;29;20031;-65
2022/09/28 05:08:27;;;;;;;5.88;2.28;;;;;;;6.99;100.00;99488.50;4953146;28;20039;-65
2022/09/28 05:10:58;;;;;;;4.43;2.55;;;;;;;6.98;100.00;99488.72;4940171;29;20040;-65
2022/09/28 05:13:23;;;;;;;5.35;2.28;;;;;;;6.98;100.00;99501.97;4953011;29;20553;-65
2022/09/28 05:15:52;;;;;;;5.00;2.83;;;;;;;6.96;100.00;99498.72;4936384;29;20063;-65
2022/09/28 05:18:17;;;;;;;5.30;2.40;;;;;;;6.93;100.00;99502.59;4934845;29;20035;-65
2022/09/28 05:20:43;;;;;;;6.50;2.25;;;;;;;6.90;100.00;99495.06;4935116;29;20090;-65
2022/09/28 05:23:10;;;;;;;5.43;2.28;;;;;;;6.91;100.00;99501.16;4917723;29;20071;-65
2022/09/28 05:25:35;;;;;;;9.85;2.60;;;;;;;6.89;100.00;99501.38;4935005;29;20035;-63
2022/09/28 05:28:02;;;;;;;5.68;2.75;;;;;;;6.88;100.00;99506.88;4934757;29;20071;-63
2022/09/28 05:30:27;;;;;;;6.05;2.45;;;;;;;6.86;100.00;99501.78;4934747;29;20403;-63
2022/09/28 05:32:53;;;;;;;2.78;2.13;;;;;;;6.87;100.00;99500.75;4952102;28;20031;-63
2022/09/28 05:35:18;;;;;;;2.60;1.83;;;;;;;6.82;100.00;99505.06;4952802;28;20502;-63
2022/09/28 05:37:44;;;;;;;3.75;1.88;;;;;;;6.84;100.00;99503.84;4955061;29;20042;-63
2022/09/28 05:40:11;;;;;;;3.83;2.30;;;;;;;6.82;100.00;99505.88;4952901;29;20058;-63
2022/09/28 05:42:36;;;;;;;3.65;1.90;;;;;;;6.79;100.00;99507.09;4952659;29;20170;-63
2022/09/28 05:45:02;;;;;;;4.22;2.60;;;;;;;6.79;100.00;99498.34;4952651;29;20114;-63
2022/09/28 05:47:27;;;;;;;3.47;2.10;;;;;;;6.77;100.00;99495.88;4948585;29;20043;-63
2022/09/28 05:49:53;;;;;;;2.58;1.88;;;;;;;6.78;100.00;99500.13;4933365;29;20475;-63
2022/09/28 05:52:18;;;;;;;2.67;2.35;;;;;;;6.79;100.00;99501.78;4938507;29;20047;-63
2022/09/28 05:54:44;;;;;;;3.97;1.95;;;;;;;6.80;100.00;99502.59;4952464;29;20035;-62
2022/09/28 05:57:09;;;;;;;2.33;1.98;;;;;;;6.82;100.00;99508.50;4952527;29;20043;-63
2022/09/28 05:59:35;;;;;;;3.15;2.08;;;;;;;6.85;100.00;99507.28;4952451;29;20046;-63
2022/09/28 06:02:01;;;;;;;6.38;1.73;;;;;;;6.86;100.00;99511.56;4934075;29;20031;-65
2022/09/28 06:04:27;;;;;;;3.03;2.35;;;;;;;6.90;100.00;99508.31;4933988;29;20423;-66
2022/09/28 06:06:53;;;;;;;3.10;1.45;;;;;;;6.95;100.00;99510.34;4934121;29;20027;-66
2022/09/28 06:09:18;;;;;;;5.05;2.15;;;;;;;6.97;100.00;99516.25;4933892;29;20155;-67
2022/09/28 06:11:44;;;;;;;5.80;2.10;;;;;;;6.96;100.00;99514.63;4933818;29;20031;-68
2022/09/28 06:14:12;;;;;;;3.13;1.65;;;;;;;6.98;100.00;99523.19;4933769;29;20020;-68
2022/09/28 06:16:38;;;;;;;2.78;1.90;;;;;;;6.98;100.00;99523.19;4933845;29;20035;-68
2022/09/28 06:19:03;;;;;;;3.75;2.03;;;;;;;6.92;100.00;99511.56;4933808;29;20070;-68
2022/09/28 06:21:29;;;;;;;2.97;1.90;;;;;;;7.05;100.00;99531.09;4933859;29;20518;-68
2022/09/28 06:23:54;;;;;;;4.03;1.80;;;;;;;7.08;100.00;99533.38;4933678;29;20059;-68
2022/09/28 06:26:19;;;;;;;4.30;2.00;;;;;;;7.10;100.00;99532.16;4933811;29;20505;-67
2022/09/28 06:28:45;;;;;;;3.03;1.40;;;;;;;7.15;100.00;99535.00;4952017;29;20046;-67
2022/09/28 06:31:10;;;;;;;3.22;1.70;;;;;;;7.17;100.00;99527.63;4951697;29;20035;-68
2022/09/28 06:33:37;;;;;;;2.65;1.88;;;;;;;7.17;100.00;99532.91;4951971;29;20038;-67
2022/09/28 06:36:02;;;;;;;1.73;1.52;;;;;;;7.14;100.00;99543.13;4952023;29;20039;-67
2022/09/28 06:38:28;;;;;;;3.67;2.03;;;;;;;7.12;100.00;99539.88;4951986;29;20031;-67
2022/09/28 06:40:55;;;;;;;3.25;2.08;;;;;;;7.13;100.00;99536.22;4951726;29;20027;-67
2022/09/28 06:43:20;;;;;;;2.30;1.50;;;;;;;7.14;100.00;99543.13;4951602;29;20154;-67
2022/09/28 06:45:51;;;;;;;2.83;1.88;;;;;;;7.10;100.00;99536.59;4951590;29;20102;-67
2022/09/28 06:48:16;;;;;;;3.55;2.25;;;;;;;7.15;100.00;99552.72;4951709;29;20190;-67
2022/09/28 06:50:42;;;;;;;3.15;2.30;;;;;;;7.06;100.00;99536.22;4951437;29;20122;-67
2022/09/28 06:53:12;;;;;;;3.67;1.80;;;;;;;7.18;100.00;99552.31;4951631;29;20129;-67
2022/09/28 06:55:42;;;;;;;3.47;1.77;;;;;;;7.22;100.00;99553.53;4951388;29;20057;-67
2022/09/28 06:58:12;;;;;;;3.17;2.33;;;;;;;7.25;100.00;99551.25;4951443;29;20023;-68
2022/09/28 07:00:39;;;;;;;2.75;2.00;;;;;;;7.31;100.00;99565.56;4951345;28;20522;-68
2022/09/28 07:03:15;;;;;;;3.97;2.47;;;;;;;7.37;100.00;99558.59;4951273;29;20054;-68
2022/09/28 07:05:43;;;;;;;4.63;2.08;;;;;;;7.42;100.00;99559.59;4951242;29;20085;-67
2022/09/28 07:08:08;;;;;;;2.42;1.98;;;;;;;7.49;100.00;99561.41;4950961;29;20399;-67
2022/09/28 07:10:34;;;;;;;2.58;2.38;;;;;;;7.51;100.00;99560.19;4951148;29;20035;-67
2022/09/28 07:13:03;;;;;;;2.65;2.25;;;;;;;7.57;100.00;99561.19;4951202;28;20031;-68
2022/09/28 07:15:30;;;;;;;4.28;2.47;;;;;;;7.60;100.00;99563.44;4951203;29;20114;-67
2022/09/28 07:18:04;;;;;;;4.03;2.35;;;;;;;7.67;100.00;99561.56;4945566;29;20032;-65
2022/09/28 07:20:32;;;;;;;3.92;2.47;;;;;;;7.72;100.00;99572.38;4951165;28;20030;-65
2022/09/28 07:22:59;;;;;;;4.93;2.90;;;;;;;7.76;100.00;99567.47;4951086;29;20063;-65
2022/09/28 07:25:28;;;;;;;6.50;3.15;;;;;;;7.80;100.00;99574.78;4951066;29;20475;-64
2022/09/28 07:27:56;;;;;;;5.60;2.85;;;;;;;7.82;100.00;99563.97;4951015;29;20026;-64
2022/09/28 07:30:21;;;;;;;3.90;2.67;;;;;;;7.90;100.00;99569.03;4950927;29;20050;-64
2022/09/28 07:32:47;;;;;;;5.03;3.55;;;;;;;7.97;100.00;99579.66;4950903;29;20031;-64
2022/09/28 07:35:13;;;;;;;4.85;2.35;;;;;;;8.01;100.00;99581.66;4950870;29;20030;-64
2022/09/28 07:37:38;;;;;;;3.63;2.25;;;;;;;8.08;100.00;99589.59;4950757;29;20631;-64
2022/09/28 07:42:49;;;;;;;6.72;2.60;;;;;;;8.20;100.00;99581.75;4932821;29;20055;-64
2022/09/28 07:45:15;;;;;;;8.30;3.85;;;;;;;8.25;100.00;99579.28;4932429;28;20035;-64
2022/09/28 07:47:40;;;;;;;6.05;3.20;;;;;;;8.34;100.00;99592.09;4932522;29;20035;-65
2022/09/28 07:50:06;;;;;;;4.18;2.50;;;;;;;8.42;100.00;99592.94;4932297;29;20028;-64
2022/09/28 07:52:33;;;;;;;6.00;3.40;;;;;;;8.47;100.00;99593.09;4932389;29;20039;-64
2022/09/28 07:55:00;;;;;;;5.18;3.05;;;;;;;8.55;100.00;99590.19;4950699;29;20035;-65
2022/09/28 07:57:26;;;;;;;5.88;3.63;;;;;;;8.62;100.00;99596.28;4950806;29;20031;-64
2022/09/28 07:59:55;;;;;;;6.97;3.47;;;;;;;8.69;100.00;99594.38;4950782;29;20034;-64
2022/09/28 08:02:21;;;;;;;5.15;3.10;;;;;;;8.76;100.00;99594.34;4950508;29;20035;-64
2022/09/28 08:04:47;;;;;;;4.90;3.60;;;;;;;8.77;100.00;99590.63;4950888;29;20118;-62
2022/09/28 08:07:17;;;;;;;6.80;3.17;;;;;;;8.88;100.00;99597.09;4950367;29;20118;-62
2022/09/28 08:09:44;;;;;;;7.05;3.05;;;;;;;8.95;100.00;99598.69;4950277;28;20055;-63
2022/09/28 08:12:13;;;;;;;6.78;3.33;;;;;;;9.07;100.00;99601.47;4950300;29;20476;-65
2022/09/28 08:14:38;;;;;;;6.53;2.95;;;;;;;9.14;100.00;99601.38;4952763;29;20078;-63
2022/09/28 08:17:05;;;;;;;5.85;3.25;;;;;;;9.22;100.00;99603.75;4953632;29;20075;-62
2022/09/28 08:22:17;;;;;;;5.30;3.80;;;;;;;9.38;100.00;99605.88;4953831;28;20109;-63
2022/09/28 08:24:43;;;;;;;8.85;2.78;;;;;;;9.44;100.00;99609.50;4947057;29;20039;-63
2022/09/28 08:27:09;;;;;;;7.45;3.33;;;;;;;9.46;100.00;99606.63;4953333;29;20034;-63
2022/09/28 08:29:35;;;;;;;7.15;3.25;;;;;;;9.57;100.00;99617.38;4953722;29;20503;-63
2022/09/28 08:32:01;;;;;;;7.75;4.50;;;;;;;9.66;100.00;99615.22;4953567;28;20027;-63
2022/09/28 08:34:27;;;;;;;5.82;3.38;;;;;;;9.72;100.00;99611.69;4953785;29;20027;-63
2022/09/28 08:36:55;;;;;;;8.27;3.47;;;;;;;9.84;100.00;99619.75;4954193;29;20554;-63
2022/09/28 08:39:21;;;;;;;6.00;3.45;;;;;;;9.91;100.00;99623.16;4954090;29;20036;-63
2022/09/28 08:42:04;;;;;;;7.15;4.00;;;;;;;9.98;100.00;99631.03;4935038;29;20051;-63
2022/09/28 08:44:49;;;;;;;6.70;4.30;;;;;;;10.03;100.00;99621.38;4934949;29;20452;-63
2022/09/28 08:50:09;;;;;;;7.50;4.90;;;;;;;10.18;100.00;99631.63;4938816;29;20038;-64
2022/09/28 08:52:38;;;;;;;13.48;4.45;;;;;;;10.16;100.00;99636.34;4953648;29;20105;-64
2022/09/28 08:55:25;;;;;;;14.00;4.82;;;;;;;10.22;100.00;99642.66;4953612;29;20521;-64
2022/09/28 08:58:18;;;;;;;11.35;5.45;;;;;;;10.24;100.00;99654.75;4953701;29;20039;-64
2022/09/28 09:00:50;;;;;;;5.07;3.80;;;;;;;10.28;100.00;99655.13;4945271;29;20125;-64
2022/09/28 09:03:22;;;;;;;7.93;4.53;;;;;;;10.26;100.00;99654.50;4953242;29;20034;-64
2022/09/28 09:06:06;;;;;;;7.10;4.38;;;;;;;10.30;100.00;99648.53;4953192;29;20439;-64
2022/09/28 09:08:50;;;;;;;7.57;4.05;;;;;;;10.37;100.00;99651.09;4953060;29;20036;-64
2022/09/28 09:11:34;;;;;;;10.50;3.90;;;;;;;10.51;100.00;99654.41;4953327;29;20027;-64
2022/09/28 09:14:18;;;;;;;6.68;4.68;;;;;;;10.77;100.00;99655.06;4953306;28;20424;-64
2022/09/28 09:16:54;;;;;;;5.20;3.78;;;;;;;10.98;99.74;99643.91;4951873;29;20117;-64
2022/09/28 09:19:38;;;;;;;9.82;4.15;;;;;;;11.24;100.00;99652.50;4934963;29;20038;-64
2022/09/28 09:22:16;;;;;;;4.85;2.88;;;;;;;11.21;95.73;99656.44;4934662;29;20041;-64
2022/09/28 09:24:50;;;;;;;4.28;2.85;;;;;;;11.14;96.46;99658.44;4934764;29;20039;-64
2022/09/28 09:27:26;;;;;;;3.25;2.40;;;;;;;11.12;96.28;99660.50;4934722;29;20111;-64
2022/09/28 09:30:00;;;;;;;4.88;2.58;;;;;;;11.21;96.43;99663.66;4952710;29;20055;-64
2022/09/28 09:32:31;;;;;;;5.60;2.95;;;;;;;11.37;96.28;99657.63;4953022;29;20031;-63
2022/09/28 09:35:14;;;;;;;4.07;3.08;;;;;;;11.44;94.31;99662.84;4952997;28;20475;-64
2022/09/28 09:38:00;;;;;;;9.50;3.70;;;;;;;11.33;96.28;99657.28;4952993;29;20042;-64
2022/09/28 09:40:49;;;;;;;4.35;2.90;;;;;;;11.34;96.93;99669.59;4953053;29;20036;-64
2022/09/28 09:43:33;;;;;;;3.97;3.10;;;;;;;11.31;94.54;99671.91;4953027;29;20033;-66
2022/09/28 09:46:04;;;;;;;5.28;3.03;;;;;;;11.35;96.00;99676.56;4952919;29;20037;-64
2022/09/28 09:48:50;;;;;;;7.30;3.67;;;;;;;11.52;94.94;99673.19;4952731;29;20063;-64
2022/09/28 09:51:23;;;;;;;5.95;3.83;;;;;;;11.64;95.88;99676.69;4952535;28;20030;-66
2022/09/28 09:53:58;;;;;;;4.80;3.53;;;;;;;11.66;95.81;99673.75;4952614;28;20476;-65
2022/09/28 09:56:35;;;;;;;3.65;3.00;;;;;;;11.82;94.65;99679.22;4952563;28;20423;-65
2022/09/28 09:59:07;;;;;;;5.68;3.05;;;;;;;11.94;94.00;99665.06;4952502;29;20034;-65
2022/09/28 10:01:38;;;;;;;4.40;3.30;;;;;;;12.16;91.94;99678.66;4952660;29;20039;-65
2022/09/28 10:04:12;;;;;;;7.63;3.88;;;;;;;12.32;92.82;99679.75;4933918;29;20031;-65
2022/09/28 10:06:41;;;;;;;6.03;3.35;;;;;;;12.38;90.97;99678.81;4952474;28;20019;-67
2022/09/28 10:09:15;;;;;;;4.85;3.55;;;;;;;12.47;89.74;99672.84;4952183;29;20468;-67
2022/09/28 10:11:47;;;;;;;5.47;3.28;;;;;;;12.68;90.85;99674.06;4952252;29;20043;-67
2022/09/28 10:14:16;;;;;;;4.65;3.67;;;;;;;12.88;90.96;99678.94;4952157;29;20039;-68
2022/09/28 10:16:46;;;;;;;4.97;2.88;;;;;;;12.92;87.06;99665.91;4951967;29;20042;-67
2022/09/28 10:19:13;;;;;;;4.22;2.80;;;;;;;13.08;86.37;99675.81;4952113;28;20039;-68
2022/09/28 10:21:40;;;;;;;4.20;2.30;;;;;;;12.92;82.51;99676.63;4952228;29;20035;-67
2022/09/28 10:24:32;;;;;;;2.33;2.05;;;;;;;12.70;85.84;99671.94;4951782;29;20061;-66
2022/09/28 10:27:10;;;;;;;2.88;2.00;;;;;;;12.54;86.31;99674.56;4951305;28;20130;-65
2022/09/28 10:29:44;;;;;;;6.40;2.65;;;;;;;12.58;86.38;99665.03;4951972;29;20387;-65
2022/09/28 10:32:25;;;;;;;2.33;1.92;;;;;;;12.53;85.91;99668.41;4951923;28;20064;-65
2022/09/28 10:34:53;;;;;;;2.88;2.53;;;;;;;12.28;86.08;99677.53;4952024;29;20023;-65
2022/09/28 10:37:19;;;;;;;3.20;2.40;;;;;;;12.10;87.16;99675.03;4951401;28;20035;-65
2022/09/28 10:39:52;;;;;;;4.35;2.15;;;;;;;12.00;88.37;99672.97;4946815;29;20037;-65
2022/09/28 10:42:30;;;;;;;3.55;2.05;;;;;;;12.18;88.55;99669.34;4916283;29;20456;-65
2022/09/28 10:45:01;;;;;;;4.07;2.25;;;;;;;12.28;87.94;99671.38;4951695;28;20086;-65
2022/09/28 10:47:30;;;;;;;1.50;1.40;;;;;;;12.28;85.67;99671.38;4951513;28;20031;-65
2022/09/28 10:49:55;;;;;;;2.53;1.20;;;;;;;12.21;84.32;99671.53;4951628;29;20036;-65
2022/09/28 10:52:44;;;;;;;1.60;1.25;;;;;;;12.27;85.72;99670.59;4951317;29;20406;-66
2022/09/28 10:55:31;;;;;;;1.35;1.25;;;;;;;12.56;85.07;99662.59;4951320;29;20602;-66
2022/09/28 10:57:57;;;;;;;2.72;1.92;;;;;;;12.76;83.50;99658.66;4951071;29;20093;-66
2022/09/28 11:00:48;;;;;;;3.83;1.30;;;;;;;12.95;85.97;99668.09;4951026;28;20027;-66
2022/09/28 11:03:26;;;;;;;1.45;1.02;;;;;;;13.13;82.41;99667.88;4947474;29;20047;-66
2022/09/28 11:06:03;;;;;;;1.95;1.35;;;;;;;13.21;81.32;99660.50;4951350;29;20086;-66
2022/09/28 11:08:38;;;;;;;1.70;1.10;;;;;;;13.47;84.21;99659.88;4951150;29;20579;-67
2022/09/28 11:11:15;;;;;;;2.22;1.40;;;;;;;13.56;82.91;99654.91;4951115;29;20035;-66
2022/09/28 11:13:44;;;;;;;1.73;1.60;;;;;;;13.47;81.33;99665.22;4951160;29;20027;-66
2022/09/28 11:16:19;;;;;;;5.65;1.65;;;;;;;13.51;82.83;99660.97;4950845;29;20093;-66
2022/09/28 11:18:44;;;;;;;9.23;1.85;;;;;;;13.55;79.98;99659.44;4950950;29;20051;-66
2022/09/28 11:21:16;;;;;;;2.88;1.55;;;;;;;13.70;82.42;99660.72;4951156;29;20050;-66
2022/09/28 11:23:55;;;;;;;2.25;1.48;;;;;;;13.77;77.68;99651.44;4950919;28;20091;-66
2022/09/28 11:26:21;;;;;;;3.13;1.92;;;;;;;13.91;82.44;99654.59;4951172;28;20047;-66
2022/09/28 11:28:51;;;;;;;3.22;1.80;;;;;;;13.90;77.79;99661.00;4951039;29;20045;-66
2022/09/28 11:31:24;;;;;;;2.35;1.75;;;;;;;13.99;80.73;99656.00;4950617;28;20087;-66
2022/09/28 11:33:59;;;;;;;2.63;1.40;;;;;;;14.06;77.01;99656.66;4950987;29;20027;-66
2022/09/28 11:36:50;;;;;;;7.03;2.15;;;;;;;14.17;77.81;99660.25;4950088;29;20031;-66
2022/09/28 11:39:39;;;;;;;6.45;2.10;;;;;;;14.15;80.15;99655.16;4950698;29;20485;-66
2022/09/28 11:42:14;;;;;;;2.35;1.70;;;;;;;14.11;76.79;99659.41;4932366;29;20050;-70
2022/09/28 11:44:43;;;;;;;1.85;1.60;;;;;;;14.07;76.47;99658.28;4932571;29;20747;-68
2022/09/28 11:47:12;;;;;;;4.20;1.85;;;;;;;14.12;78.67;99661.03;4915313;29;20039;-68
2022/09/28 11:49:59;;;;;;;5.47;2.22;;;;;;;14.00;78.51;99653.09;4931793;29;20024;-70
2022/09/28 11:52:27;;;;;;;7.45;3.72;;;;;;;13.85;79.50;99660.94;4950397;29;20125;-68